Time;durP1;ratioP1;P1;durP2;ratioP2;P2;SDS_P1;SDS_P2;PMS_P1;PMS_P2;Temp;Humidity;BMP_temperature;BMP_pressure;BME280_temperature;BME280_humidity;BME280_pressure;Samples;Min_cycle;Max_cycle;Signal;HPM_P1;HPM_P2
2022/01/01 00:01:17;;;;;;;5.00;3.70;;;;;;;12.96;100.00;100254.33;2888236;82;21059;-71
2022/01/01 00:05:19;;;;;;;5.00;4.60;;;;;;;13.02;100.00;100273.47;2888205;82;21047;-72
2022/01/01 00:09:21;;;;;;;7.58;5.25;;;;;;;13.04;100.00;100282.17;2885255;81;21037;-71
2022/01/01 00:13:23;;;;;;;5.50;4.90;;;;;;;13.02;100.00;100268.13;2887632;81;20982;-71
2022/01/01 00:17:24;;;;;;;7.42;6.30;;;;;;;13.09;100.00;100279.43;2888012;80;20976;-72
2022/01/01 00:21:26;;;;;;;6.70;5.65;;;;;;;13.16;100.00;100277.01;2888655;82;20997;-71
2022/01/01 00:25:29;;;;;;;9.85;6.55;;;;;;;13.17;100.00;100284.06;2888707;82;21029;-70
2022/01/01 00:29:30;;;;;;;10.50;8.35;;;;;;;13.29;99.29;100281.56;2912338;81;21011;-71
2022/01/01 00:33:32;;;;;;;9.60;7.60;;;;;;;13.33;98.81;100291.95;2926011;81;20995;-70
2022/01/01 00:37:34;;;;;;;11.40;8.53;;;;;;;13.42;98.28;100299.13;2925969;81;21074;-71
2022/01/01 00:41:35;;;;;;;9.40;6.90;;;;;;;13.33;98.19;100295.96;2926480;81;21045;-72
2022/01/01 00:45:37;;;;;;;10.28;9.35;;;;;;;13.28;98.34;100306.59;2926226;81;20998;-74
2022/01/01 00:49:39;;;;;;;8.15;7.10;;;;;;;13.30;98.16;100306.46;2926282;80;20959;-72
2022/01/01 00:53:40;;;;;;;9.23;6.62;;;;;;;13.29;98.03;100313.62;2926045;78;20955;-74
2022/01/01 00:57:42;;;;;;;8.88;6.62;;;;;;;13.19;98.31;100326.16;2926109;80;20970;-72
2022/01/01 01:01:44;;;;;;;6.00;5.40;;;;;;;13.33;97.42;100328.02;2926297;80;21054;-74
2022/01/01 01:05:47;;;;;;;6.95;5.90;;;;;;;13.32;97.12;100329.86;2926117;81;21030;-72
2022/01/01 01:09:48;;;;;;;6.33;5.00;;;;;;;13.33;97.03;100337.37;2926106;81;21002;-73
2022/01/01 01:13:57;;;;;;;5.80;5.12;;;;;;;13.29;96.98;100343.00;2926169;81;21041;-74
2022/01/01 01:17:55;;;;;;;5.92;5.12;;;;;;;13.36;96.56;100359.78;2925253;81;21613;-73
2022/01/01 01:21:57;;;;;;;7.97;6.62;;;;;;;13.36;96.65;100358.45;2926267;81;21025;-74
2022/01/01 01:26:01;;;;;;;12.05;5.78;;;;;;;13.35;96.62;100352.76;2926014;80;20994;-74
2022/01/01 01:30:10;;;;;;;8.50;5.80;;;;;;;13.33;97.08;100370.77;2933825;80;21024;-74
2022/01/01 01:34:12;;;;;;;6.15;5.55;;;;;;;13.36;96.87;100365.13;2940445;80;20978;-73
2022/01/01 01:38:14;;;;;;;5.67;4.90;;;;;;;13.31;97.06;100352.22;2940386;80;21014;-71
2022/01/01 01:42:16;;;;;;;6.30;5.70;;;;;;;13.37;96.96;100358.83;2940696;81;20998;-74
2022/01/01 01:46:17;;;;;;;5.55;5.00;;;;;;;13.44;96.59;100374.66;3020972;78;21120;-74
2022/01/01 01:50:20;;;;;;;8.63;5.33;;;;;;;13.51;96.35;100381.62;3021054;79;20939;-74
2022/01/01 01:54:22;;;;;;;10.03;6.08;;;;;;;13.41;96.75;100386.95;3021052;79;21010;-74
2022/01/01 01:58:24;;;;;;;7.20;5.15;;;;;;;13.42;97.20;100381.44;3021071;79;21027;-73
2022/01/01 02:02:26;;;;;;;7.33;6.22;;;;;;;13.38;97.99;100373.36;3021469;79;21053;-72
2022/01/01 02:06:28;;;;;;;5.45;4.60;;;;;;;13.42;97.74;100372.09;3021082;79;20979;-72
2022/01/01 02:10:32;;;;;;;7.25;6.42;;;;;;;13.40;98.11;100394.61;3021204;79;20963;-73
2022/01/01 02:19:01;;;;;;;9.18;6.05;;;;;;;13.33;98.70;100398.81;3021378;79;21029;-73
2022/01/01 02:23:03;;;;;;;6.37;5.58;;;;;;;13.25;99.79;100401.70;3020954;79;21017;-73
2022/01/01 02:27:05;;;;;;;9.48;6.87;;;;;;;13.32;99.29;100390.45;3021198;78;21532;-74
2022/01/01 02:31:07;;;;;;;7.87;6.65;;;;;;;13.29;99.37;100387.08;3025133;78;21015;-72
2022/01/01 02:35:13;;;;;;;6.20;5.47;;;;;;;13.32;99.43;100399.80;3024915;78;21027;-73
2022/01/01 02:39:19;;;;;;;7.12;6.40;;;;;;;13.22;100.00;100403.81;3025182;78;21030;-75
2022/01/01 02:43:20;;;;;;;6.72;6.03;;;;;;;13.21;100.00;100398.97;3024915;78;20987;-73
2022/01/01 02:47:22;;;;;;;5.67;5.17;;;;;;;13.10;100.00;100408.44;3025067;78;21019;-74
2022/01/01 02:51:24;;;;;;;6.67;5.20;;;;;;;13.18;100.00;100412.61;3025000;78;21015;-74
2022/01/01 02:55:25;;;;;;;6.70;5.28;;;;;;;13.21;100.00;100430.16;3024694;78;21019;-74
2022/01/01 02:59:27;;;;;;;8.55;5.83;;;;;;;13.13;100.00;100429.52;3024942;78;20987;-74
2022/01/01 03:03:29;;;;;;;6.60;5.45;;;;;;;13.25;100.00;100433.77;3024896;78;20952;-73
2022/01/01 03:07:30;;;;;;;6.10;5.12;;;;;;;13.27;100.00;100428.30;3024789;78;20941;-74
2022/01/01 03:11:32;;;;;;;6.15;4.95;;;;;;;13.25;100.00;100437.77;3025087;78;20964;-74
2022/01/01 03:15:34;;;;;;;6.62;5.12;;;;;;;13.27;100.00;100442.48;3024800;78;21024;-75
2022/01/01 03:19:36;;;;;;;9.10;4.95;;;;;;;13.22;100.00;100435.38;3024915;78;20980;-73
2022/01/01 03:23:38;;;;;;;7.75;4.10;;;;;;;13.27;100.00;100449.16;3024943;78;20975;-74
2022/01/01 03:27:39;;;;;;;4.83;4.33;;;;;;;13.24;100.00;100436.08;3023899;78;21010;-75
2022/01/01 03:31:41;;;;;;;5.95;3.62;;;;;;;13.25;100.00;100439.11;3020979;79;21333;-73
2022/01/01 03:35:43;;;;;;;4.47;4.08;;;;;;;13.25;100.00;100425.75;3021236;79;20931;-74
2022/01/01 03:39:45;;;;;;;5.12;4.53;;;;;;;13.28;100.00;100444.67;3021100;79;20990;-75
2022/01/01 03:43:47;;;;;;;7.20;3.72;;;;;;;13.22;100.00;100431.38;3021029;79;21026;-76
2022/01/01 03:47:49;;;;;;;3.70;3.40;;;;;;;13.30;100.00;100445.38;3021204;79;21026;-76
2022/01/01 03:51:51;;;;;;;5.05;4.17;;;;;;;13.05;100.00;100441.41;3021215;79;20998;-73
2022/01/01 03:55:53;;;;;;;6.20;3.92;;;;;;;13.06;100.00;100457.78;3021176;79;21554;-73
2022/01/01 03:59:55;;;;;;;7.42;4.72;;;;;;;13.15;100.00;100444.92;3021224;79;20994;-74
2022/01/01 04:03:57;;;;;;;4.50;3.87;;;;;;;13.23;100.00;100457.11;3021018;79;20959;-74
2022/01/01 04:07:58;;;;;;;5.70;4.45;;;;;;;13.26;100.00;100459.49;3021221;79;21021;-73
2022/01/01 04:12:00;;;;;;;4.37;3.98;;;;;;;13.24;100.00;100454.78;3021137;79;20998;-74
2022/01/01 04:16:02;;;;;;;7.58;4.42;;;;;;;13.26;100.00;100448.81;3021165;79;20963;-72
2022/01/01 04:20:06;;;;;;;7.05;4.67;;;;;;;13.25;100.00;100460.47;3021216;79;21029;-74
2022/01/01 04:24:08;;;;;;;6.87;4.40;;;;;;;13.15;100.00;100462.28;3021159;79;21017;-74
2022/01/01 04:28:09;;;;;;;6.95;6.20;;;;;;;13.15;100.00;100474.30;3022167;78;21090;-75
2022/01/01 04:32:14;;;;;;;7.45;5.60;;;;;;;13.15;100.00;100480.97;3024690;78;20937;-74
2022/01/01 04:36:14;;;;;;;15.95;6.22;;;;;;;13.06;100.00;100479.97;3025188;78;20988;-73
2022/01/01 04:40:16;;;;;;;11.30;6.60;;;;;;;13.03;100.00;100486.09;3025054;78;21059;-73
2022/01/01 04:44:18;;;;;;;8.70;6.45;;;;;;;12.95;100.00;100495.61;3025004;78;21019;-72
2022/01/01 04:48:20;;;;;;;8.45;6.58;;;;;;;12.90;100.00;100493.85;3024902;78;21015;-74
2022/01/01 04:52:21;;;;;;;9.68;7.15;;;;;;;12.87;100.00;100482.11;3024607;78;20984;-73
2022/01/01 04:56:24;;;;;;;13.48;8.23;;;;;;;12.92;100.00;100489.72;3025048;78;20991;-72
2022/01/01 05:00:25;;;;;;;10.72;9.25;;;;;;;12.83;100.00;100495.39;3024896;78;20960;-74
2022/01/01 05:04:27;;;;;;;10.43;7.08;;;;;;;12.90;100.00;100496.52;3024890;78;20980;-74
2022/01/01 05:08:29;;;;;;;15.38;8.50;;;;;;;12.80;100.00;100492.99;3033691;78;21222;-75
2022/01/01 05:12:30;;;;;;;10.13;7.40;;;;;;;12.82;100.00;100507.05;2958138;80;20967;-74
2022/01/01 05:16:32;;;;;;;14.95;9.23;;;;;;;12.79;100.00;100503.31;2914431;81;21002;-74
2022/01/01 05:20:34;;;;;;;14.03;9.73;;;;;;;12.90;100.00;100519.22;2914213;81;21062;-75
2022/01/01 05:24:35;;;;;;;9.50;7.25;;;;;;;12.93;100.00;100518.94;2914517;81;20971;-74
2022/01/01 05:28:38;;;;;;;13.62;8.03;;;;;;;12.82;100.00;100515.88;2916199;81;21071;-74
2022/01/01 05:32:40;;;;;;;12.33;10.68;;;;;;;12.72;100.00;100527.03;2920333;81;21050;-73
2022/01/01 05:36:42;;;;;;;11.55;9.68;;;;;;;12.90;100.00;100526.39;2920845;81;21005;-74
2022/01/01 05:40:44;;;;;;;15.83;10.48;;;;;;;12.99;100.00;100524.23;2920368;81;20991;-75
2022/01/01 05:44:46;;;;;;;11.48;10.32;;;;;;;12.95;100.00;100537.50;2920440;81;20984;-76
2022/01/01 05:48:47;;;;;;;12.20;7.70;;;;;;;12.86;100.00;100539.16;2920247;81;21024;-76
2022/01/01 05:52:49;;;;;;;12.98;10.90;;;;;;;12.90;100.00;100545.09;2930740;80;21059;-75
2022/01/01 05:56:51;;;;;;;12.35;9.30;;;;;;;12.93;100.00;100564.33;2925002;80;21638;-73
2022/01/01 06:00:53;;;;;;;14.03;9.60;;;;;;;12.91;100.00;100555.61;2964236;80;20953;-75
2022/01/01 06:04:54;;;;;;;12.35;9.75;;;;;;;12.93;100.00;100554.16;2870670;82;20981;-75
2022/01/01 06:08:56;;;;;;;13.13;8.73;;;;;;;12.92;100.00;100561.30;2870513;83;20980;-75
2022/01/01 06:12:58;;;;;;;12.55;10.35;;;;;;;12.98;99.22;100564.80;2870438;83;20977;-75
2022/01/01 06:17:00;;;;;;;12.30;9.53;;;;;;;13.02;99.13;100582.70;2897487;82;20986;-76
2022/01/01 06:21:03;;;;;;;17.60;8.38;;;;;;;13.00;98.96;100587.34;2897469;82;21003;-75
2022/01/01 06:25:05;;;;;;;11.05;8.43;;;;;;;12.90;98.80;100584.62;2897394;82;20984;-75
2022/01/01 06:29:08;;;;;;;13.48;8.88;;;;;;;12.93;98.55;100599.55;2964040;80;21088;-74
2022/01/01 06:33:20;;;;;;;10.43;9.03;;;;;;;13.03;97.81;100603.59;2909607;81;21107;-74
2022/01/01 06:37:22;;;;;;;14.00;10.00;;;;;;;12.96;97.84;100590.75;2936759;81;21001;-73
2022/01/01 06:41:25;;;;;;;12.73;9.43;;;;;;;12.98;97.48;100603.51;2936442;81;20954;-74
2022/01/01 06:45:26;;;;;;;11.22;8.05;;;;;;;12.93;97.28;100595.54;2936763;81;21041;-73
2022/01/01 06:49:28;;;;;;;8.83;6.55;;;;;;;12.94;97.39;100606.06;2936400;81;21009;-74
2022/01/01 06:53:30;;;;;;;10.23;6.90;;;;;;;12.92;97.24;100605.36;2936552;81;20945;-73
2022/01/01 06:57:32;;;;;;;12.50;7.78;;;;;;;12.88;97.23;100605.27;2936748;81;21032;-73
2022/01/01 07:01:34;;;;;;;14.07;8.35;;;;;;;12.93;97.38;100617.73;2936534;81;21052;-74
2022/01/01 07:05:35;;;;;;;15.25;8.55;;;;;;;12.90;97.37;100618.00;2936332;81;21616;-74
2022/01/01 07:09:37;;;;;;;10.50;8.55;;;;;;;12.96;97.30;100622.80;2936469;81;21020;-74
2022/01/01 07:13:39;;;;;;;11.57;8.75;;;;;;;12.98;97.15;100614.19;2936383;81;21763;-74
2022/01/01 07:17:40;;;;;;;10.32;8.20;;;;;;;13.06;96.86;100624.69;2936829;81;20981;-72
2022/01/01 07:21:42;;;;;;;12.15;7.70;;;;;;;13.06;96.54;100632.70;2936361;81;20942;-74
2022/01/01 07:25:44;;;;;;;14.28;7.17;;;;;;;13.15;96.27;100630.54;2936018;81;21056;-73
2022/01/01 07:29:45;;;;;;;9.18;6.67;;;;;;;13.13;96.68;100628.50;2950842;78;21038;-73
2022/01/01 07:33:47;;;;;;;15.10;8.25;;;;;;;13.13;96.88;100634.70;2967620;80;20970;-73
2022/01/01 07:37:52;;;;;;;11.38;7.45;;;;;;;13.08;97.06;100654.77;2910223;82;21042;-72
2022/01/01 07:41:53;;;;;;;14.93;8.25;;;;;;;13.09;97.17;100648.45;2888786;82;20961;-74
2022/01/01 07:45:55;;;;;;;18.32;7.78;;;;;;;13.04;97.19;100665.36;2888354;82;21444;-73
2022/01/01 07:49:57;;;;;;;12.07;6.67;;;;;;;13.13;96.69;100662.75;2888654;82;21015;-73
2022/01/01 07:53:59;;;;;;;10.03;8.28;;;;;;;13.12;96.70;100660.19;2888885;82;20963;-74
2022/01/01 07:58:01;;;;;;;13.78;10.23;;;;;;;13.15;97.49;100662.59;2888744;82;21019;-73
2022/01/01 08:02:03;;;;;;;12.78;8.05;;;;;;;13.11;97.80;100674.53;2888943;82;21011;-73
2022/01/01 08:06:05;;;;;;;12.73;9.08;;;;;;;13.13;98.12;100671.23;2888841;82;20964;-73
2022/01/01 08:10:07;;;;;;;8.28;6.35;;;;;;;13.10;98.43;100668.83;2888578;81;20937;-73
2022/01/01 08:14:09;;;;;;;12.23;8.58;;;;;;;13.06;98.90;100686.11;2888827;82;21042;-74
2022/01/01 08:18:11;;;;;;;15.35;9.35;;;;;;;13.06;99.21;100692.78;2888994;82;20967;-73
2022/01/01 08:22:14;;;;;;;11.68;8.85;;;;;;;13.06;99.49;100687.44;2899538;81;21020;-73
2022/01/01 08:26:16;;;;;;;14.45;8.08;;;;;;;13.08;100.00;100693.49;2939158;81;20985;-74
2022/01/01 08:30:17;;;;;;;10.23;9.08;;;;;;;13.03;100.00;100697.06;2935187;81;21052;-74
2022/01/01 08:34:19;;;;;;;16.65;9.05;;;;;;;13.13;100.00;100701.95;2932366;81;20958;-74
2022/01/01 08:38:21;;;;;;;9.58;8.03;;;;;;;13.12;99.72;100707.80;2932534;81;21028;-73
2022/01/01 08:42:24;;;;;;;13.95;9.13;;;;;;;13.16;99.59;100703.02;2932568;81;21037;-74
2022/01/01 08:46:25;;;;;;;13.35;8.80;;;;;;;13.21;99.43;100706.16;2932623;81;21020;-71
2022/01/01 08:50:27;;;;;;;8.38;7.25;;;;;;;13.29;99.04;100713.51;2932561;81;20974;-71
2022/01/01 08:54:28;;;;;;;11.05;6.65;;;;;;;13.39;98.31;100712.22;2932721;81;21084;-72
2022/01/01 08:58:30;;;;;;;8.93;6.87;;;;;;;13.41;97.63;100716.94;2932692;81;20980;-71
2022/01/01 09:02:32;;;;;;;9.68;6.45;;;;;;;13.41;97.07;100706.25;2936536;81;21039;-71
2022/01/01 09:06:34;;;;;;;14.53;8.20;;;;;;;13.41;96.64;100716.94;2934393;81;20946;-71
2022/01/01 09:10:36;;;;;;;12.15;7.78;;;;;;;13.43;96.28;100713.67;2939126;81;21024;-71
2022/01/01 09:14:38;;;;;;;12.78;8.18;;;;;;;13.49;95.78;100723.81;2938699;81;21000;-71
2022/01/01 09:18:42;;;;;;;10.70;7.90;;;;;;;13.50;95.18;100722.83;2941919;81;20965;-71
2022/01/01 09:22:44;;;;;;;14.23;8.83;;;;;;;13.55;94.49;100739.30;2937838;81;21009;-71
2022/01/01 09:26:45;;;;;;;12.53;6.75;;;;;;;13.60;94.57;100740.75;2933395;81;21020;-72
2022/01/01 09:30:47;;;;;;;11.95;7.58;;;;;;;13.65;94.19;100747.36;2921010;81;21053;-71
2022/01/01 09:34:49;;;;;;;12.98;7.47;;;;;;;13.65;93.81;100759.39;2881579;81;20986;-72
2022/01/01 09:38:50;;;;;;;9.08;7.00;;;;;;;13.58;93.39;100752.06;2888541;82;20975;-71
2022/01/01 09:42:53;;;;;;;10.48;7.70;;;;;;;13.66;92.87;100766.45;2900090;81;20992;-73
2022/01/01 09:46:54;;;;;;;13.95;7.97;;;;;;;13.72;92.78;100757.03;2894988;81;21062;-71
2022/01/01 09:51:00;;;;;;;7.90;6.00;;;;;;;13.70;92.03;100761.19;2888684;82;21558;-71
2022/01/01 09:55:02;;;;;;;7.17;5.30;;;;;;;13.74;91.91;100764.92;2888873;82;21047;-71
2022/01/01 09:59:04;;;;;;;10.80;7.20;;;;;;;13.69;92.22;100784.03;2915967;81;20946;-70
2022/01/01 10:03:14;;;;;;;7.70;6.75;;;;;;;13.70;91.80;100787.06;2892616;81;21003;-71
2022/01/01 10:07:16;;;;;;;13.78;7.15;;;;;;;13.78;91.51;100787.73;2888667;82;21071;-71
2022/01/01 10:11:19;;;;;;;12.33;6.97;;;;;;;13.81;91.26;100790.99;2890141;81;21024;-71
2022/01/01 10:15:21;;;;;;;9.00;6.55;;;;;;;13.79;90.92;100784.94;2884262;81;20962;-70
2022/01/01 10:19:29;;;;;;;11.83;8.00;;;;;;;13.85;90.47;100776.36;2888440;82;21031;-72
2022/01/01 10:23:33;;;;;;;8.25;6.60;;;;;;;13.82;91.08;100790.48;2888399;82;20980;-71
2022/01/01 10:27:43;;;;;;;13.90;7.42;;;;;;;13.76;91.29;100793.70;2888431;82;21068;-72
2022/01/01 10:32:02;;;;;;;7.75;6.47;;;;;;;13.77;91.27;100800.27;2919348;81;21073;-72
2022/01/01 10:36:06;;;;;;;16.60;7.25;;;;;;;13.73;90.80;100795.31;2935645;81;20950;-71
2022/01/01 10:40:10;;;;;;;11.15;7.30;;;;;;;13.79;90.77;100798.78;2936106;81;30570;-72
2022/01/01 10:44:12;;;;;;;8.23;5.60;;;;;;;13.86;90.87;100801.30;2901740;81;20990;-70
2022/01/01 10:48:23;;;;;;;10.85;7.28;;;;;;;13.81;90.48;100796.34;2909650;81;21021;-72
2022/01/01 10:52:28;;;;;;;11.55;7.40;;;;;;;13.88;90.33;100789.97;2901987;81;21023;-71
2022/01/01 10:56:37;;;;;;;7.45;6.00;;;;;;;13.87;90.11;100806.13;2919070;80;21002;-71
2022/01/01 11:00:41;;;;;;;7.42;5.67;;;;;;;13.85;90.35;100812.94;2907389;82;20987;-70
2022/01/01 11:04:44;;;;;;;11.38;7.33;;;;;;;13.77;90.93;100809.63;2930114;81;20988;-70
2022/01/01 11:08:47;;;;;;;14.43;7.08;;;;;;;13.83;90.66;100814.43;2930658;80;21020;-71
2022/01/01 11:12:49;;;;;;;14.80;7.78;;;;;;;13.76;90.84;100805.27;2913397;80;21032;-70
2022/01/01 11:16:52;;;;;;;8.88;6.58;;;;;;;13.68;91.00;100815.76;2917437;80;21046;-70
2022/01/01 11:20:56;;;;;;;13.38;7.58;;;;;;;13.80;91.24;100817.84;2913663;80;21002;-70
2022/01/01 11:25:00;;;;;;;8.03;6.72;;;;;;;13.82;91.09;100819.42;2927173;80;21020;-70
2022/01/01 11:29:02;;;;;;;11.28;8.50;;;;;;;13.77;91.03;100824.33;2941776;80;21024;-70
2022/01/01 11:33:10;;;;;;;9.63;6.45;;;;;;;13.80;91.26;100821.39;2969969;80;20950;-69
2022/01/01 11:37:17;;;;;;;11.78;8.55;;;;;;;13.76;91.59;100827.13;2967991;80;21325;-71
2022/01/01 11:41:19;;;;;;;9.73;7.28;;;;;;;13.82;91.17;100828.78;2968077;80;20931;-72
2022/01/01 11:45:45;;;;;;;10.23;8.28;;;;;;;13.84;91.18;100826.81;2944266;80;21033;-71
2022/01/01 11:49:49;;;;;;;12.90;9.45;;;;;;;13.75;91.24;100820.92;2962534;80;21153;-70
2022/01/01 11:54:14;;;;;;;8.13;6.97;;;;;;;13.79;91.31;100817.50;2947208;80;21005;-71
2022/01/01 11:58:15;;;;;;;12.88;6.53;;;;;;;13.70;91.53;100815.13;2916682;81;21061;-72
2022/01/01 12:02:29;;;;;;;11.05;8.10;;;;;;;13.78;91.49;100821.16;2864085;83;21072;-71
2022/01/01 12:06:38;;;;;;;7.72;6.87;;;;;;;13.66;92.15;100809.70;2864295;83;21016;-71
2022/01/01 12:10:39;;;;;;;16.77;8.95;;;;;;;13.55;92.95;100828.84;2863928;83;21052;-71
2022/01/01 12:14:42;;;;;;;7.53;6.78;;;;;;;13.49;93.37;100828.55;2863801;83;21040;-73
2022/01/01 12:18:45;;;;;;;12.98;7.95;;;;;;;13.51;93.19;100824.73;2864159;83;20981;-69
2022/01/01 12:22:48;;;;;;;10.08;7.33;;;;;;;13.54;93.09;100826.31;2864319;82;20995;-71
2022/01/01 12:26:53;;;;;;;8.33;7.30;;;;;;;13.51;93.96;100837.27;2909065;82;20966;-70
2022/01/01 12:31:14;;;;;;;18.50;8.97;;;;;;;13.48;94.74;100834.36;2884347;80;21037;-71
2022/01/01 12:35:18;;;;;;;14.40;9.03;;;;;;;13.42;95.31;100831.69;2914407;81;21021;-70
2022/01/01 12:39:21;;;;;;;12.55;8.78;;;;;;;13.41;95.66;100835.84;2914470;81;21053;-71
2022/01/01 12:43:23;;;;;;;11.22;7.17;;;;;;;13.41;95.88;100840.69;2914418;81;20947;-71
2022/01/01 12:47:28;;;;;;;14.58;9.70;;;;;;;13.41;95.30;100838.52;2914497;80;21033;-71
2022/01/01 12:51:33;;;;;;;13.00;8.90;;;;;;;13.31;95.22;100860.30;2914332;81;21655;-71
2022/01/01 12:55:34;;;;;;;11.33;7.90;;;;;;;13.23;95.29;100849.78;2881006;81;20954;-71
2022/01/01 12:59:36;;;;;;;14.45;8.40;;;;;;;13.26;95.97;100853.53;2839423;84;21028;-70
2022/01/01 13:03:38;;;;;;;9.63;7.90;;;;;;;13.23;94.87;100856.94;2839486;84;21009;-71
2022/01/01 13:07:42;;;;;;;14.93;9.78;;;;;;;13.25;95.56;100852.31;2839426;84;21016;-71
2022/01/01 13:11:56;;;;;;;10.88;7.42;;;;;;;13.28;95.30;100863.59;2839506;84;21002;-71
2022/01/01 13:15:56;;;;;;;14.98;7.87;;;;;;;13.34;95.04;100862.70;2838798;83;21009;-72
2022/01/01 13:19:57;;;;;;;17.52;8.55;;;;;;;13.28;95.14;100868.94;2839300;83;21029;-70
2022/01/01 13:23:59;;;;;;;9.45;8.50;;;;;;;13.34;94.66;100872.06;2828753;83;21140;-70
2022/01/01 13:28:03;;;;;;;17.70;8.20;;;;;;;13.35;93.81;100877.76;2866202;83;21006;-72
2022/01/01 13:32:05;;;;;;;13.22;9.53;;;;;;;13.39;93.67;100875.22;2867143;81;21022;-72
2022/01/01 13:36:06;;;;;;;11.33;8.50;;;;;;;13.45;93.05;100892.09;2867353;83;21018;-72
2022/01/01 13:40:10;;;;;;;12.95;9.13;;;;;;;13.48;93.31;100891.82;2867505;83;20979;-72
2022/01/01 13:44:30;;;;;;;14.60;8.03;;;;;;;13.46;92.92;100888.91;2896250;81;21035;-71
2022/01/01 13:48:46;;;;;;;14.90;9.43;;;;;;;13.40;93.03;100910.31;2896636;82;21033;-73
2022/01/01 13:52:57;;;;;;;12.70;9.03;;;;;;;13.43;92.41;100905.56;2901196;81;21097;-72
2022/01/01 13:57:05;;;;;;;12.55;8.68;;;;;;;13.46;92.51;100907.62;2918329;81;21062;-70
2022/01/01 14:01:06;;;;;;;12.60;8.18;;;;;;;13.42;92.64;100905.68;2918018;81;21052;-70
2022/01/01 14:05:09;;;;;;;14.15;8.15;;;;;;;13.43;92.66;100904.73;2984682;79;21064;-71
2022/01/01 14:09:11;;;;;;;14.07;6.90;;;;;;;13.43;92.37;100916.25;2985063;79;20999;-69
2022/01/01 14:13:13;;;;;;;15.90;8.80;;;;;;;13.45;92.51;100913.94;2985026;79;20967;-70
2022/01/01 14:17:14;;;;;;;12.47;7.97;;;;;;;13.42;92.56;100916.37;2985298;79;21057;-71
2022/01/01 14:21:17;;;;;;;11.43;7.12;;;;;;;13.43;92.47;100928.28;2926970;80;21025;-69
2022/01/01 14:25:20;;;;;;;12.20;7.28;;;;;;;13.41;92.67;100920.02;2924007;81;20982;-69
2022/01/01 14:29:24;;;;;;;13.28;10.15;;;;;;;13.34;93.27;100932.17;2923149;81;21051;-70
2022/01/01 14:33:28;;;;;;;18.50;9.33;;;;;;;13.34;92.90;100927.70;2798287;83;21064;-70
2022/01/01 14:37:32;;;;;;;17.17;9.88;;;;;;;13.35;93.08;100947.23;2926858;81;20998;-69
2022/01/01 14:41:33;;;;;;;27.90;12.10;;;;;;;13.32;93.36;100948.83;2927047;81;20989;-71
2022/01/01 14:45:38;;;;;;;19.25;11.83;;;;;;;13.33;93.54;100939.84;2926918;81;21041;-70
2022/01/01 14:49:49;;;;;;;20.37;11.63;;;;;;;13.29;93.96;100946.77;2926594;81;21030;-69
2022/01/01 14:54:08;;;;;;;22.05;10.28;;;;;;;13.24;94.32;100953.00;2925816;80;21037;-73
2022/01/01 14:58:13;;;;;;;11.18;7.03;;;;;;;13.19;94.87;100952.53;2926181;81;21328;-70
2022/01/01 15:02:16;;;;;;;14.20;9.43;;;;;;;13.10;95.24;100959.48;2926318;81;20994;-70
2022/01/01 15:06:18;;;;;;;16.50;8.35;;;;;;;13.05;95.55;100968.34;2926552;80;20969;-70
2022/01/01 15:10:25;;;;;;;18.80;10.23;;;;;;;13.07;95.37;100960.21;2926577;81;21048;-70
2022/01/01 15:14:28;;;;;;;14.07;9.90;;;;;;;12.99;95.90;100959.50;2926477;81;21021;-71
2022/01/01 15:18:31;;;;;;;15.72;7.78;;;;;;;12.98;96.07;100969.81;2926747;81;21024;-71
2022/01/01 15:23:05;;;;;;;14.20;8.40;;;;;;;12.98;95.98;100973.83;2927253;81;21036;-73
2022/01/01 15:27:10;;;;;;;15.58;9.05;;;;;;;12.93;96.25;100975.52;2930864;80;21012;-70
2022/01/01 15:31:23;;;;;;;16.77;9.37;;;;;;;12.91;96.31;100972.64;2949664;78;21089;-70
2022/01/01 15:35:42;;;;;;;29.75;17.70;;;;;;;12.95;96.11;100978.92;2981514;80;21025;-70
2022/01/01 15:39:24;;;;;;;63.95;34.98;;;;;;;12.91;96.27;100987.33;2973414;80;20986;-70
2022/01/01 15:43:30;;;;;;;44.05;23.38;;;;;;;12.87;96.19;100998.73;2983472;80;20993;-72
2022/01/01 15:47:32;;;;;;;23.00;14.47;;;;;;;13.01;95.57;100992.27;3033906;78;21021;-69
2022/01/01 15:51:34;;;;;;;16.40;11.20;;;;;;;12.94;95.56;100995.08;2973151;80;21027;-71
2022/01/01 15:55:36;;;;;;;22.90;11.48;;;;;;;12.98;95.13;100989.37;2922482;80;21002;-73
2022/01/01 15:59:46;;;;;;;12.37;9.58;;;;;;;12.98;94.87;100988.52;2916365;81;21013;-72
2022/01/01 16:03:56;;;;;;;15.18;10.18;;;;;;;12.93;94.62;100991.55;2862825;82;20996;-72
2022/01/01 16:07:58;;;;;;;10.72;8.45;;;;;;;12.92;94.40;101000.53;2891745;82;20998;-73
2022/01/01 16:12:04;;;;;;;13.15;8.33;;;;;;;13.00;93.97;100992.77;2891913;82;20991;-72
2022/01/01 16:16:09;;;;;;;11.05;8.65;;;;;;;12.93;94.27;100991.55;2864113;83;21089;-71
2022/01/01 16:20:10;;;;;;;15.50;10.63;;;;;;;12.84;95.20;100994.97;2916417;81;20989;-71
2022/01/01 16:24:14;;;;;;;13.35;9.20;;;;;;;12.77;96.19;101000.42;2916366;80;20981;-72
2022/01/01 16:28:17;;;;;;;21.30;8.75;;;;;;;12.84;95.94;101002.98;2863933;83;21054;-73
2022/01/01 16:32:22;;;;;;;19.27;10.78;;;;;;;12.83;95.91;101004.79;2848665;83;21010;-73
2022/01/01 16:36:27;;;;;;;16.48;11.15;;;;;;;12.89;95.69;101009.30;2909397;82;21023;-73
2022/01/01 16:40:33;;;;;;;15.07;10.40;;;;;;;12.97;95.13;101006.37;2888935;82;21063;-72
2022/01/01 16:44:55;;;;;;;12.73;9.00;;;;;;;12.97;95.11;101006.37;2887513;82;20972;-71
2022/01/01 16:49:08;;;;;;;15.50;11.08;;;;;;;13.01;94.77;101002.95;2888566;82;21015;-73
2022/01/01 16:53:12;;;;;;;19.62;10.05;;;;;;;13.04;94.68;101007.20;2899389;81;21102;-70
2022/01/01 16:57:17;;;;;;;14.58;11.68;;;;;;;13.14;94.33;101002.32;2907355;82;21010;-71
2022/01/01 17:01:22;;;;;;;13.43;11.00;;;;;;;13.26;94.19;101016.50;2927449;81;21090;-73
2022/01/01 17:05:24;;;;;;;14.33;9.38;;;;;;;13.35;93.31;101006.87;2876976;83;21005;-73
2022/01/01 17:09:26;;;;;;;15.20;10.13;;;;;;;13.34;92.52;101006.99;2874460;83;21045;-72
2022/01/01 17:13:36;;;;;;;14.38;9.98;;;;;;;13.28;92.54;101007.86;2904589;82;21043;-72
2022/01/01 17:17:46;;;;;;;17.42;10.55;;;;;;;13.25;92.59;101006.78;2907524;82;21010;-73
2022/01/01 17:22:03;;;;;;;20.68;11.20;;;;;;;13.25;92.77;101020.14;2867915;83;21077;-72
2022/01/01 17:26:07;;;;;;;14.93;9.90;;;;;;;13.21;92.92;101017.37;2835895;84;20978;-71
2022/01/01 17:30:10;;;;;;;14.05;11.22;;;;;;;13.25;92.87;101020.61;2835907;84;20975;-70
2022/01/01 17:42:33;;;;;;;13.98;11.05;;;;;;;13.32;92.98;101022.30;2799159;85;21060;-71
2022/01/01 17:46:34;;;;;;;17.00;11.33;;;;;;;13.48;93.40;101020.10;2799059;85;20985;-72
2022/01/01 17:50:43;;;;;;;14.85;10.45;;;;;;;13.63;92.14;101029.17;2799021;85;21028;-72
2022/01/01 17:54:42;;;;;;;14.00;10.65;;;;;;;13.69;91.50;101021.97;2829577;83;21025;-71
2022/01/01 17:58:45;;;;;;;17.87;11.45;;;;;;;13.80;91.59;101024.60;2846137;82;21052;-72
2022/01/01 18:02:49;;;;;;;14.58;12.05;;;;;;;13.85;90.43;101037.09;2846323;83;21020;-71
2022/01/01 18:07:08;;;;;;;20.85;12.40;;;;;;;13.87;89.25;101035.64;2846082;83;21086;-71
2022/01/01 18:11:16;;;;;;;22.00;12.25;;;;;;;13.79;89.42;101040.77;2846000;82;21037;-71
2022/01/01 18:15:18;;;;;;;20.95;11.83;;;;;;;13.67;89.31;101042.64;2845954;83;21053;-71
2022/01/01 18:19:23;;;;;;;24.70;13.65;;;;;;;13.49;89.62;101048.52;2846227;83;21476;-72
2022/01/01 18:23:28;;;;;;;19.15;13.65;;;;;;;13.42;90.17;101047.31;2845987;83;21002;-71
2022/01/01 18:27:44;;;;;;;18.17;13.25;;;;;;;13.35;90.46;101048.77;2846241;83;21088;-71
2022/01/01 18:31:47;;;;;;;22.37;12.63;;;;;;;13.33;90.43;101054.25;2857902;82;21121;-71
2022/01/01 18:35:48;;;;;;;24.43;12.35;;;;;;;13.27;90.52;101055.59;2890111;82;21025;-71
2022/01/01 18:39:51;;;;;;;18.55;11.15;;;;;;;13.12;90.53;101057.69;2881987;80;21555;-72
2022/01/01 18:43:54;;;;;;;18.35;11.48;;;;;;;13.16;90.83;101064.95;2840782;82;21021;-70
2022/01/01 18:47:58;;;;;;;17.73;11.43;;;;;;;13.25;90.97;101060.69;2855458;82;21047;-68
2022/01/01 18:52:03;;;;;;;17.80;11.28;;;;;;;13.27;90.29;101070.30;2858053;82;21616;-68